sensor_id;sensor_type;location;lat;lon;timestamp;temperature;humidity
23873;DHT22;42884;50.718;4.630;2022-12-16T00:01:32;-3.00;99.90
23873;DHT22;42884;50.718;4.630;2022-12-16T00:03:58;-3.40;99.90
23873;DHT22;42884;50.718;4.630;2022-12-16T00:06:25;-3.20;99.90
23873;DHT22;42884;50.718;4.630;2022-12-16T00:08:51;-3.20;99.90
23873;DHT22;42884;50.718;4.630;2022-12-16T00:11:17;-3.10;99.90
23873;DHT22;42884;50.718;4.630;2022-12-16T00:13:44;-3.00;99.90
23873;DHT22;42884;50.718;4.630;2022-12-16T00:16:10;-3.00;99.90
23873;DHT22;42884;50.718;4.630;2022-12-16T00:18:36;-2.90;99.90
23873;DHT22;42884;50.718;4.630;2022-12-16T00:21:02;-2.90;99.90
23873;DHT22;42884;50.718;4.630;2022-12-16T00:23:29;-2.90;99.90
23873;DHT22;42884;50.718;4.630;2022-12-16T00:25:54;-2.30;99.90
23873;DHT22;42884;50.718;4.630;2022-12-16T00:28:20;-2.60;99.90
23873;DHT22;42884;50.718;4.630;2022-12-16T00:30:47;-2.50;99.90
23873;DHT22;42884;50.718;4.630;2022-12-16T00:33:13;-2.40;99.90
23873;DHT22;42884;50.718;4.630;2022-12-16T00:35:39;-2.30;99.90
23873;DHT22;42884;50.718;4.630;2022-12-16T00:38:04;-2.30;99.90
23873;DHT22;42884;50.718;4.630;2022-12-16T00:40:30;-2.20;99.90
23873;DHT22;42884;50.718;4.630;2022-12-16T00:42:55;-2.10;99.90
23873;DHT22;42884;50.718;4.630;2022-12-16T00:45:21;-2.00;99.90
23873;DHT22;42884;50.718;4.630;2022-12-16T00:47:48;-2.00;99.90
23873;DHT22;42884;50.718;4.630;2022-12-16T00:50:13;-2.00;99.90
23873;DHT22;42884;50.718;4.630;2022-12-16T00:52:39;-1.90;99.90
23873;DHT22;42884;50.718;4.630;2022-12-16T00:55:05;-1.80;99.90
23873;DHT22;42884;50.718;4.630;2022-12-16T00:57:32;-1.80;99.90
23873;DHT22;42884;50.718;4.630;2022-12-16T00:59:57;-1.80;99.90
23873;DHT22;42884;50.718;4.630;2022-12-16T01:02:23;-1.60;99.90
23873;DHT22;42884;50.718;4.630;2022-12-16T01:04:49;-1.70;99.90
23873;DHT22;42884;50.718;4.630;2022-12-16T01:07:14;-1.60;99.90
23873;DHT22;42884;50.718;4.630;2022-12-16T01:09:40;-1.50;99.90
23873;DHT22;42884;50.718;4.630;2022-12-16T01:12:05;-1.50;99.90
23873;DHT22;42884;50.718;4.630;2022-12-16T01:14:31;-1.60;99.90
23873;DHT22;42884;50.718;4.630;2022-12-16T01:16:56;-1.50;99.90
23873;DHT22;42884;50.718;4.630;2022-12-16T01:19:22;-1.60;99.90
23873;DHT22;42884;50.718;4.630;2022-12-16T01:21:48;-1.70;99.90
23873;DHT22;42884;50.718;4.630;2022-12-16T01:24:13;-1.60;99.90
23873;DHT22;42884;50.718;4.630;2022-12-16T01:26:39;-1.50;99.90
23873;DHT22;42884;50.718;4.630;2022-12-16T01:29:05;-1.50;99.90
23873;DHT22;42884;50.718;4.630;2022-12-16T01:31:30;-1.40;99.90
23873;DHT22;42884;50.718;4.630;2022-12-16T01:33:56;-1.40;99.90
23873;DHT22;42884;50.718;4.630;2022-12-16T01:36:22;-1.30;99.90
23873;DHT22;42884;50.718;4.630;2022-12-16T01:38:47;-1.30;99.90
23873;DHT22;42884;50.718;4.630;2022-12-16T01:41:14;-1.20;99.90
23873;DHT22;42884;50.718;4.630;2022-12-16T01:43:40;-1.10;99.90
23873;DHT22;42884;50.718;4.630;2022-12-16T01:51:05;-1.10;99.90
23873;DHT22;42884;50.718;4.630;2022-12-16T01:53:31;-1.00;99.90
23873;DHT22;42884;50.718;4.630;2022-12-16T01:55:57;-1.00;99.90
23873;DHT22;42884;50.718;4.630;2022-12-16T01:58:25;-0.90;99.90
23873;DHT22;42884;50.718;4.630;2022-12-16T02:00:51;-0.80;99.90
23873;DHT22;42884;50.718;4.630;2022-12-16T02:03:17;-0.80;99.90
23873;DHT22;42884;50.718;4.630;2022-12-16T02:05:43;-0.80;99.90
23873;DHT22;42884;50.718;4.630;2022-12-16T02:08:14;-0.90;99.90
23873;DHT22;42884;50.718;4.630;2022-12-16T02:18:25;-0.70;99.90
23873;DHT22;42884;50.718;4.630;2022-12-16T02:29:23;-0.60;99.90
23873;DHT22;42884;50.718;4.630;2022-12-16T02:39:15;-0.40;99.90
23873;DHT22;42884;50.718;4.630;2022-12-16T02:41:47;-0.40;99.90
23873;DHT22;42884;50.718;4.630;2022-12-16T02:44:16;-0.40;99.90
23873;DHT22;42884;50.718;4.630;2022-12-16T02:46:50;-0.40;99.90
23873;DHT22;42884;50.718;4.630;2022-12-16T02:51:42;-0.30;99.90
23873;DHT22;42884;50.718;4.630;2022-12-16T02:54:08;-0.30;99.90
23873;DHT22;42884;50.718;4.630;2022-12-16T03:04:02;-0.10;99.90
23873;DHT22;42884;50.718;4.630;2022-12-16T03:06:30;-0.10;99.90
23873;DHT22;42884;50.718;4.630;2022-12-16T03:08:58;0.00;99.90
23873;DHT22;42884;50.718;4.630;2022-12-16T03:11:25;0.00;99.90
23873;DHT22;42884;50.718;4.630;2022-12-16T03:13:53;0.00;99.90
23873;DHT22;42884;50.718;4.630;2022-12-16T03:16:19;0.00;99.90
23873;DHT22;42884;50.718;4.630;2022-12-16T03:18:46;0.00;99.90
23873;DHT22;42884;50.718;4.630;2022-12-16T03:21:13;0.10;99.90
23873;DHT22;42884;50.718;4.630;2022-12-16T03:23:42;0.10;99.90
23873;DHT22;42884;50.718;4.630;2022-12-16T03:26:11;0.10;99.90
23873;DHT22;42884;50.718;4.630;2022-12-16T03:28:41;0.10;99.90
23873;DHT22;42884;50.718;4.630;2022-12-16T03:31:13;0.20;99.90
23873;DHT22;42884;50.718;4.630;2022-12-16T03:33:45;0.20;99.90
23873;DHT22;42884;50.718;4.630;2022-12-16T03:36:14;0.20;99.90
23873;DHT22;42884;50.718;4.630;2022-12-16T03:38:41;0.20;99.90
23873;DHT22;42884;50.718;4.630;2022-12-16T03:41:07;0.20;99.90
23873;DHT22;42884;50.718;4.630;2022-12-16T03:43:33;0.30;99.90
23873;DHT22;42884;50.718;4.630;2022-12-16T03:46:00;0.30;99.90
23873;DHT22;42884;50.718;4.630;2022-12-16T03:48:27;0.30;99.90
23873;DHT22;42884;50.718;4.630;2022-12-16T03:50:53;0.30;99.90
23873;DHT22;42884;50.718;4.630;2022-12-16T03:53:18;0.40;99.90
23873;DHT22;42884;50.718;4.630;2022-12-16T03:55:44;0.40;99.90
23873;DHT22;42884;50.718;4.630;2022-12-16T03:58:09;0.40;99.90
23873;DHT22;42884;50.718;4.630;2022-12-16T04:00:35;0.40;99.90
23873;DHT22;42884;50.718;4.630;2022-12-16T04:03:00;0.40;99.90
23873;DHT22;42884;50.718;4.630;2022-12-16T04:05:26;0.40;99.90
23873;DHT22;42884;50.718;4.630;2022-12-16T04:07:52;0.40;99.90
23873;DHT22;42884;50.718;4.630;2022-12-16T04:10:17;0.50;99.90
23873;DHT22;42884;50.718;4.630;2022-12-16T04:13:03;0.40;99.90
23873;DHT22;42884;50.718;4.630;2022-12-16T04:15:47;0.50;99.90
23873;DHT22;42884;50.718;4.630;2022-12-16T04:18:32;0.50;99.90
23873;DHT22;42884;50.718;4.630;2022-12-16T04:21:16;0.50;99.90
23873;DHT22;42884;50.718;4.630;2022-12-16T04:24:00;0.40;99.90
23873;DHT22;42884;50.718;4.630;2022-12-16T04:26:44;0.40;99.90
23873;DHT22;42884;50.718;4.630;2022-12-16T04:29:28;0.50;99.90
23873;DHT22;42884;50.718;4.630;2022-12-16T04:31:53;0.60;99.90
23873;DHT22;42884;50.718;4.630;2022-12-16T04:34:20;0.60;99.90
23873;DHT22;42884;50.718;4.630;2022-12-16T04:36:54;0.60;99.90
23873;DHT22;42884;50.718;4.630;2022-12-16T04:39:38;0.60;99.90
23873;DHT22;42884;50.718;4.630;2022-12-16T04:42:22;0.60;99.90
23873;DHT22;42884;50.718;4.630;2022-12-16T04:45:09;0.50;99.90
23873;DHT22;42884;50.718;4.630;2022-12-16T04:47:53;0.50;99.90
23873;DHT22;42884;50.718;4.630;2022-12-16T04:50:37;0.50;99.90
23873;DHT22;42884;50.718;4.630;2022-12-16T04:53:22;0.60;99.90
23873;DHT22;42884;50.718;4.630;2022-12-16T04:56:06;0.60;99.90
23873;DHT22;42884;50.718;4.630;2022-12-16T04:58:50;0.60;99.90
23873;DHT22;42884;50.718;4.630;2022-12-16T05:01:34;0.60;99.90
23873;DHT22;42884;50.718;4.630;2022-12-16T05:04:18;0.60;99.90
23873;DHT22;42884;50.718;4.630;2022-12-16T05:07:19;0.60;99.90
23873;DHT22;42884;50.718;4.630;2022-12-16T05:10:04;0.60;99.90
23873;DHT22;42884;50.718;4.630;2022-12-16T05:12:51;0.70;99.90
23873;DHT22;42884;50.718;4.630;2022-12-16T05:15:35;0.60;99.90
23873;DHT22;42884;50.718;4.630;2022-12-16T05:18:19;0.60;99.90
23873;DHT22;42884;50.718;4.630;2022-12-16T05:21:03;0.70;99.90
23873;DHT22;42884;50.718;4.630;2022-12-16T05:23:48;0.70;99.90
23873;DHT22;42884;50.718;4.630;2022-12-16T05:26:32;0.70;99.90
23873;DHT22;42884;50.718;4.630;2022-12-16T05:29:16;0.80;99.90
23873;DHT22;42884;50.718;4.630;2022-12-16T05:32:00;0.80;99.90
23873;DHT22;42884;50.718;4.630;2022-12-16T05:34:44;0.70;99.90
23873;DHT22;42884;50.718;4.630;2022-12-16T05:37:29;0.70;99.90
23873;DHT22;42884;50.718;4.630;2022-12-16T05:40:13;0.80;99.90
23873;DHT22;42884;50.718;4.630;2022-12-16T05:42:57;0.80;99.90
23873;DHT22;42884;50.718;4.630;2022-12-16T05:45:41;0.90;99.90
23873;DHT22;42884;50.718;4.630;2022-12-16T05:48:26;0.90;99.90
23873;DHT22;42884;50.718;4.630;2022-12-16T05:51:10;0.90;99.90
23873;DHT22;42884;50.718;4.630;2022-12-16T05:53:54;0.90;99.90
23873;DHT22;42884;50.718;4.630;2022-12-16T05:56:43;0.90;99.90
23873;DHT22;42884;50.718;4.630;2022-12-16T05:59:27;0.90;99.90
23873;DHT22;42884;50.718;4.630;2022-12-16T06:02:15;1.00;99.90
23873;DHT22;42884;50.718;4.630;2022-12-16T06:04:59;1.00;99.90
23873;DHT22;42884;50.718;4.630;2022-12-16T06:07:49;1.00;99.90
23873;DHT22;42884;50.718;4.630;2022-12-16T06:10:33;1.00;99.90
23873;DHT22;42884;50.718;4.630;2022-12-16T06:13:17;1.10;99.90
23873;DHT22;42884;50.718;4.630;2022-12-16T06:16:01;1.10;99.90
23873;DHT22;42884;50.718;4.630;2022-12-16T06:18:45;1.00;99.90
23873;DHT22;42884;50.718;4.630;2022-12-16T06:21:30;1.20;99.90
23873;DHT22;42884;50.718;4.630;2022-12-16T06:24:14;1.20;99.90
23873;DHT22;42884;50.718;4.630;2022-12-16T06:26:58;1.20;99.90
23873;DHT22;42884;50.718;4.630;2022-12-16T06:29:43;1.20;99.90
23873;DHT22;42884;50.718;4.630;2022-12-16T06:32:27;1.10;99.90
23873;DHT22;42884;50.718;4.630;2022-12-16T06:35:11;1.10;99.90
23873;DHT22;42884;50.718;4.630;2022-12-16T06:37:55;1.20;99.90
23873;DHT22;42884;50.718;4.630;2022-12-16T06:40:39;1.30;99.90
23873;DHT22;42884;50.718;4.630;2022-12-16T06:43:24;1.40;99.90
23873;DHT22;42884;50.718;4.630;2022-12-16T06:46:08;1.40;99.90
23873;DHT22;42884;50.718;4.630;2022-12-16T06:48:52;1.40;99.90
23873;DHT22;42884;50.718;4.630;2022-12-16T06:51:36;1.50;99.90
23873;DHT22;42884;50.718;4.630;2022-12-16T06:54:20;1.50;99.90
23873;DHT22;42884;50.718;4.630;2022-12-16T06:57:05;1.50;99.90
23873;DHT22;42884;50.718;4.630;2022-12-16T06:59:49;1.60;99.90
23873;DHT22;42884;50.718;4.630;2022-12-16T07:02:33;1.60;99.90
23873;DHT22;42884;50.718;4.630;2022-12-16T07:05:17;1.70;99.90
23873;DHT22;42884;50.718;4.630;2022-12-16T07:08:01;1.80;99.90
23873;DHT22;42884;50.718;4.630;2022-12-16T07:10:46;1.80;99.90
23873;DHT22;42884;50.718;4.630;2022-12-16T07:13:30;1.80;99.90
23873;DHT22;42884;50.718;4.630;2022-12-16T07:16:14;1.90;99.90
23873;DHT22;42884;50.718;4.630;2022-12-16T07:18:58;1.90;99.90
23873;DHT22;42884;50.718;4.630;2022-12-16T07:21:43;2.00;99.90
23873;DHT22;42884;50.718;4.630;2022-12-16T07:24:27;2.00;99.90
23873;DHT22;42884;50.718;4.630;2022-12-16T07:27:11;2.00;99.90
23873;DHT22;42884;50.718;4.630;2022-12-16T07:29:55;2.00;99.90
23873;DHT22;42884;50.718;4.630;2022-12-16T07:32:39;2.10;99.90
23873;DHT22;42884;50.718;4.630;2022-12-16T07:35:23;2.10;99.90
23873;DHT22;42884;50.718;4.630;2022-12-16T07:38:07;2.10;99.90
23873;DHT22;42884;50.718;4.630;2022-12-16T07:40:53;2.10;99.90
23873;DHT22;42884;50.718;4.630;2022-12-16T07:43:38;1.90;99.90
23873;DHT22;42884;50.718;4.630;2022-12-16T07:46:22;1.90;99.90
23873;DHT22;42884;50.718;4.630;2022-12-16T07:49:06;2.00;99.90
23873;DHT22;42884;50.718;4.630;2022-12-16T07:51:50;2.20;99.90
23873;DHT22;42884;50.718;4.630;2022-12-16T07:54:35;2.20;99.90
23873;DHT22;42884;50.718;4.630;2022-12-16T07:57:19;2.20;99.90
23873;DHT22;42884;50.718;4.630;2022-12-16T08:00:03;2.30;99.90
23873;DHT22;42884;50.718;4.630;2022-12-16T08:02:54;2.30;99.90
23873;DHT22;42884;50.718;4.630;2022-12-16T08:05:38;2.40;99.90
23873;DHT22;42884;50.718;4.630;2022-12-16T08:08:22;2.50;99.90
23873;DHT22;42884;50.718;4.630;2022-12-16T08:11:06;2.40;99.90
23873;DHT22;42884;50.718;4.630;2022-12-16T08:13:51;2.40;99.90
23873;DHT22;42884;50.718;4.630;2022-12-16T08:16:35;2.50;99.90
23873;DHT22;42884;50.718;4.630;2022-12-16T08:19:19;2.60;99.90
23873;DHT22;42884;50.718;4.630;2022-12-16T08:22:03;2.60;99.90
23873;DHT22;42884;50.718;4.630;2022-12-16T08:24:48;2.60;99.90
23873;DHT22;42884;50.718;4.630;2022-12-16T08:27:32;2.70;99.90
23873;DHT22;42884;50.718;4.630;2022-12-16T08:30:16;2.70;99.90
23873;DHT22;42884;50.718;4.630;2022-12-16T08:33:00;2.70;99.90
23873;DHT22;42884;50.718;4.630;2022-12-16T08:35:45;2.70;99.90
23873;DHT22;42884;50.718;4.630;2022-12-16T08:38:29;2.60;99.90
23873;DHT22;42884;50.718;4.630;2022-12-16T08:41:13;2.80;99.90
23873;DHT22;42884;50.718;4.630;2022-12-16T08:43:57;2.60;99.90
23873;DHT22;42884;50.718;4.630;2022-12-16T08:46:42;2.60;99.90
23873;DHT22;42884;50.718;4.630;2022-12-16T08:49:26;2.80;99.90
23873;DHT22;42884;50.718;4.630;2022-12-16T08:52:10;2.90;99.90
23873;DHT22;42884;50.718;4.630;2022-12-16T08:54:54;3.00;99.90
23873;DHT22;42884;50.718;4.630;2022-12-16T08:57:38;3.00;99.90
23873;DHT22;42884;50.718;4.630;2022-12-16T09:00:23;2.90;99.90
23873;DHT22;42884;50.718;4.630;2022-12-16T09:03:07;3.00;99.90
23873;DHT22;42884;50.718;4.630;2022-12-16T09:05:55;3.10;99.90
23873;DHT22;42884;50.718;4.630;2022-12-16T09:08:40;3.00;99.90
23873;DHT22;42884;50.718;4.630;2022-12-16T09:11:24;3.00;99.90
23873;DHT22;42884;50.718;4.630;2022-12-16T09:14:08;3.00;99.90
23873;DHT22;42884;50.718;4.630;2022-12-16T09:16:52;2.80;99.90
23873;DHT22;42884;50.718;4.630;2022-12-16T09:19:37;2.80;99.90
23873;DHT22;42884;50.718;4.630;2022-12-16T09:22:21;2.90;99.90
23873;DHT22;42884;50.718;4.630;2022-12-16T09:25:05;3.00;99.90
23873;DHT22;42884;50.718;4.630;2022-12-16T09:27:49;3.00;99.90
23873;DHT22;42884;50.718;4.630;2022-12-16T09:30:34;3.00;99.90
23873;DHT22;42884;50.718;4.630;2022-12-16T09:33:18;2.90;99.90
23873;DHT22;42884;50.718;4.630;2022-12-16T09:36:02;2.90;99.90
23873;DHT22;42884;50.718;4.630;2022-12-16T09:38:46;2.90;99.90
23873;DHT22;42884;50.718;4.630;2022-12-16T09:41:35;2.90;99.90
23873;DHT22;42884;50.718;4.630;2022-12-16T09:47:27;3.00;99.90
23873;DHT22;42884;50.718;4.630;2022-12-16T09:50:17;3.00;99.90
23873;DHT22;42884;50.718;4.630;2022-12-16T09:53:02;3.00;99.90
23873;DHT22;42884;50.718;4.630;2022-12-16T09:55:48;3.00;99.90
23873;DHT22;42884;50.718;4.630;2022-12-16T09:58:37;2.90;99.90
23873;DHT22;42884;50.718;4.630;2022-12-16T10:01:22;2.90;99.90
23873;DHT22;42884;50.718;4.630;2022-12-16T10:04:07;3.00;99.90
23873;DHT22;42884;50.718;4.630;2022-12-16T10:06:51;3.10;99.90
23873;DHT22;42884;50.718;4.630;2022-12-16T10:15:33;3.10;99.90
23873;DHT22;42884;50.718;4.630;2022-12-16T10:18:24;3.20;99.90
23873;DHT22;42884;50.718;4.630;2022-12-16T10:21:14;3.20;99.90
23873;DHT22;42884;50.718;4.630;2022-12-16T10:27:00;3.10;99.90
23873;DHT22;42884;50.718;4.630;2022-12-16T10:29:47;3.30;99.90
23873;DHT22;42884;50.718;4.630;2022-12-16T10:32:49;3.20;99.90
23873;DHT22;42884;50.718;4.630;2022-12-16T10:35:52;3.10;99.90
23873;DHT22;42884;50.718;4.630;2022-12-16T10:38:38;3.20;99.90
23873;DHT22;42884;50.718;4.630;2022-12-16T10:41:25;3.10;99.90
23873;DHT22;42884;50.718;4.630;2022-12-16T10:47:08;3.20;99.90
23873;DHT22;42884;50.718;4.630;2022-12-16T10:50:12;3.30;99.90
23873;DHT22;42884;50.718;4.630;2022-12-16T10:53:00;3.20;99.90
23873;DHT22;42884;50.718;4.630;2022-12-16T10:55:50;3.40;99.90
23873;DHT22;42884;50.718;4.630;2022-12-16T11:01:30;3.70;99.90
23873;DHT22;42884;50.718;4.630;2022-12-16T11:07:25;3.80;99.90
23873;DHT22;42884;50.718;4.630;2022-12-16T11:13:26;3.70;99.90
23873;DHT22;42884;50.718;4.630;2022-12-16T11:16:12;3.90;99.90
23873;DHT22;42884;50.718;4.630;2022-12-16T11:18:57;3.90;99.90
23873;DHT22;42884;50.718;4.630;2022-12-16T11:21:41;4.00;99.90
23873;DHT22;42884;50.718;4.630;2022-12-16T11:24:25;4.20;99.90
23873;DHT22;42884;50.718;4.630;2022-12-16T11:29:54;4.70;99.90
23873;DHT22;42884;50.718;4.630;2022-12-16T11:32:41;4.80;99.90
23873;DHT22;42884;50.718;4.630;2022-12-16T11:35:26;5.20;99.90
23873;DHT22;42884;50.718;4.630;2022-12-16T11:38:14;5.10;99.90
23873;DHT22;42884;50.718;4.630;2022-12-16T11:41:00;5.40;99.90
23873;DHT22;42884;50.718;4.630;2022-12-16T11:43:45;6.10;99.90
23873;DHT22;42884;50.718;4.630;2022-12-16T11:46:32;6.90;99.90
23873;DHT22;42884;50.718;4.630;2022-12-16T11:49:31;8.20;99.90
23873;DHT22;42884;50.718;4.630;2022-12-16T11:52:17;9.00;99.90
23873;DHT22;42884;50.718;4.630;2022-12-16T11:55:13;10.20;99.90
23873;DHT22;42884;50.718;4.630;2022-12-16T11:58:10;11.60;99.90
23873;DHT22;42884;50.718;4.630;2022-12-16T12:01:16;12.20;99.90
23873;DHT22;42884;50.718;4.630;2022-12-16T12:04:01;12.80;99.90
23873;DHT22;42884;50.718;4.630;2022-12-16T12:07:03;12.80;99.90
23873;DHT22;42884;50.718;4.630;2022-12-16T12:10:15;12.60;99.90
23873;DHT22;42884;50.718;4.630;2022-12-16T12:13:00;11.80;99.90
23873;DHT22;42884;50.718;4.630;2022-12-16T12:16:02;11.20;99.90
23873;DHT22;42884;50.718;4.630;2022-12-16T12:18:49;11.90;99.90
23873;DHT22;42884;50.718;4.630;2022-12-16T12:24:52;15.20;99.90
23873;DHT22;42884;50.718;4.630;2022-12-16T12:27:45;15.90;98.80
23873;DHT22;42884;50.718;4.630;2022-12-16T12:30:31;16.90;97.50
23873;DHT22;42884;50.718;4.630;2022-12-16T12:36:05;17.70;94.50
23873;DHT22;42884;50.718;4.630;2022-12-16T12:47:22;19.40;91.30
23873;DHT22;42884;50.718;4.630;2022-12-16T12:50:07;18.70;89.20
23873;DHT22;42884;50.718;4.630;2022-12-16T12:55:48;18.10;91.00
23873;DHT22;42884;50.718;4.630;2022-12-16T12:58:35;17.30;91.40
23873;DHT22;42884;50.718;4.630;2022-12-16T13:01:20;16.20;92.60
23873;DHT22;42884;50.718;4.630;2022-12-16T13:04:12;14.80;93.50
23873;DHT22;42884;50.718;4.630;2022-12-16T13:06:58;13.70;93.90
23873;DHT22;42884;50.718;4.630;2022-12-16T13:09:42;12.70;96.10
23873;DHT22;42884;50.718;4.630;2022-12-16T13:12:28;11.90;98.10
23873;DHT22;42884;50.718;4.630;2022-12-16T13:18:23;10.70;99.90
23873;DHT22;42884;50.718;4.630;2022-12-16T13:24:18;9.60;99.90
23873;DHT22;42884;50.718;4.630;2022-12-16T13:27:03;8.90;99.90
23873;DHT22;42884;50.718;4.630;2022-12-16T13:29:59;8.60;99.90
23873;DHT22;42884;50.718;4.630;2022-12-16T13:32:52;8.40;99.90
23873;DHT22;42884;50.718;4.630;2022-12-16T13:35:46;7.80;99.90
23873;DHT22;42884;50.718;4.630;2022-12-16T13:38:34;7.70;99.90
23873;DHT22;42884;50.718;4.630;2022-12-16T13:44:09;7.30;99.90
23873;DHT22;42884;50.718;4.630;2022-12-16T13:46:54;7.10;99.90
23873;DHT22;42884;50.718;4.630;2022-12-16T13:49:45;6.90;99.90
23873;DHT22;42884;50.718;4.630;2022-12-16T13:55:15;6.60;99.90
23873;DHT22;42884;50.718;4.630;2022-12-16T13:58:02;6.30;99.90
23873;DHT22;42884;50.718;4.630;2022-12-16T14:00:56;6.20;99.90
23873;DHT22;42884;50.718;4.630;2022-12-16T14:03:46;6.00;99.90
23873;DHT22;42884;50.718;4.630;2022-12-16T14:06:31;5.90;99.90
23873;DHT22;42884;50.718;4.630;2022-12-16T14:09:22;5.70;99.90
23873;DHT22;42884;50.718;4.630;2022-12-16T14:12:34;5.70;99.90
23873;DHT22;42884;50.718;4.630;2022-12-16T14:15:29;5.40;99.90
23873;DHT22;42884;50.718;4.630;2022-12-16T14:21:01;5.10;99.90
23873;DHT22;42884;50.718;4.630;2022-12-16T14:23:54;5.00;99.90
23873;DHT22;42884;50.718;4.630;2022-12-16T14:26:41;5.00;99.90
23873;DHT22;42884;50.718;4.630;2022-12-16T14:29:26;4.90;99.90
23873;DHT22;42884;50.718;4.630;2022-12-16T14:35:06;4.90;99.90
23873;DHT22;42884;50.718;4.630;2022-12-16T14:37:54;4.80;99.90
23873;DHT22;42884;50.718;4.630;2022-12-16T14:40:38;4.70;99.90
23873;DHT22;42884;50.718;4.630;2022-12-16T14:43:23;4.70;99.90
23873;DHT22;42884;50.718;4.630;2022-12-16T14:46:25;4.50;99.90
23873;DHT22;42884;50.718;4.630;2022-12-16T14:49:28;4.50;99.90
23873;DHT22;42884;50.718;4.630;2022-12-16T14:52:23;4.50;99.90
23873;DHT22;42884;50.718;4.630;2022-12-16T14:58:28;4.20;99.90
23873;DHT22;42884;50.718;4.630;2022-12-16T15:03:58;4.10;99.90
23873;DHT22;42884;50.718;4.630;2022-12-16T15:06:44;3.90;99.90
23873;DHT22;42884;50.718;4.630;2022-12-16T15:09:40;3.80;99.90
23873;DHT22;42884;50.718;4.630;2022-12-16T15:12:25;3.60;99.90
23873;DHT22;42884;50.718;4.630;2022-12-16T15:15:16;3.50;99.90
23873;DHT22;42884;50.718;4.630;2022-12-16T15:18:01;3.30;99.90
23873;DHT22;42884;50.718;4.630;2022-12-16T15:20:48;3.10;99.90
23873;DHT22;42884;50.718;4.630;2022-12-16T15:23:32;2.90;99.90
23873;DHT22;42884;50.718;4.630;2022-12-16T15:26:18;2.80;99.90
23873;DHT22;42884;50.718;4.630;2022-12-16T15:29:02;2.70;99.90
23873;DHT22;42884;50.718;4.630;2022-12-16T15:31:46;2.50;99.90
23873;DHT22;42884;50.718;4.630;2022-12-16T15:34:34;2.40;99.90
23873;DHT22;42884;50.718;4.630;2022-12-16T15:37:20;2.20;99.90
23873;DHT22;42884;50.718;4.630;2022-12-16T15:40:17;2.20;99.90
23873;DHT22;42884;50.718;4.630;2022-12-16T15:43:02;2.10;99.90
23873;DHT22;42884;50.718;4.630;2022-12-16T15:45:47;1.90;99.90
23873;DHT22;42884;50.718;4.630;2022-12-16T15:48:31;1.70;99.90
23873;DHT22;42884;50.718;4.630;2022-12-16T15:51:30;1.70;99.90
23873;DHT22;42884;50.718;4.630;2022-12-16T15:54:15;1.50;99.90
23873;DHT22;42884;50.718;4.630;2022-12-16T15:57:00;1.40;99.90
23873;DHT22;42884;50.718;4.630;2022-12-16T15:59:51;1.40;99.90
23873;DHT22;42884;50.718;4.630;2022-12-16T16:02:37;1.30;99.90
23873;DHT22;42884;50.718;4.630;2022-12-16T16:05:22;1.20;99.90
23873;DHT22;42884;50.718;4.630;2022-12-16T16:08:07;1.20;99.90
23873;DHT22;42884;50.718;4.630;2022-12-16T16:10:53;1.10;99.90
23873;DHT22;42884;50.718;4.630;2022-12-16T16:13:37;1.00;99.90
23873;DHT22;42884;50.718;4.630;2022-12-16T16:16:21;1.00;99.90
23873;DHT22;42884;50.718;4.630;2022-12-16T16:19:09;0.90;99.90
23873;DHT22;42884;50.718;4.630;2022-12-16T16:21:54;0.80;99.90
23873;DHT22;42884;50.718;4.630;2022-12-16T16:24:38;0.70;99.90
23873;DHT22;42884;50.718;4.630;2022-12-16T16:27:22;0.80;99.90
23873;DHT22;42884;50.718;4.630;2022-12-16T16:30:09;0.70;99.90
23873;DHT22;42884;50.718;4.630;2022-12-16T16:32:53;0.50;99.90
23873;DHT22;42884;50.718;4.630;2022-12-16T16:35:37;0.60;99.90
23873;DHT22;42884;50.718;4.630;2022-12-16T16:38:21;0.60;99.90
23873;DHT22;42884;50.718;4.630;2022-12-16T16:41:10;0.60;99.90
23873;DHT22;42884;50.718;4.630;2022-12-16T16:43:56;0.60;99.90
23873;DHT22;42884;50.718;4.630;2022-12-16T16:46:40;0.60;99.90
23873;DHT22;42884;50.718;4.630;2022-12-16T16:49:28;0.60;99.90
23873;DHT22;42884;50.718;4.630;2022-12-16T16:52:14;0.80;99.90
23873;DHT22;42884;50.718;4.630;2022-12-16T16:54:58;0.70;99.90
23873;DHT22;42884;50.718;4.630;2022-12-16T16:57:43;0.70;99.90
23873;DHT22;42884;50.718;4.630;2022-12-16T17:00:27;0.70;99.90
23873;DHT22;42884;50.718;4.630;2022-12-16T17:03:11;0.70;99.90
23873;DHT22;42884;50.718;4.630;2022-12-16T17:05:55;0.70;99.90
23873;DHT22;42884;50.718;4.630;2022-12-16T17:08:40;0.60;99.90
23873;DHT22;42884;50.718;4.630;2022-12-16T17:11:24;0.50;99.90
23873;DHT22;42884;50.718;4.630;2022-12-16T17:14:12;0.40;99.90
23873;DHT22;42884;50.718;4.630;2022-12-16T17:16:56;0.40;99.90
23873;DHT22;42884;50.718;4.630;2022-12-16T17:19:41;0.30;99.90
23873;DHT22;42884;50.718;4.630;2022-12-16T17:22:25;0.20;99.90
23873;DHT22;42884;50.718;4.630;2022-12-16T17:25:09;0.10;99.90
23873;DHT22;42884;50.718;4.630;2022-12-16T17:27:53;0.10;99.90
23873;DHT22;42884;50.718;4.630;2022-12-16T17:30:37;0.00;99.90
23873;DHT22;42884;50.718;4.630;2022-12-16T17:33:22;0.00;99.90
23873;DHT22;42884;50.718;4.630;2022-12-16T17:36:08;-0.10;99.90
23873;DHT22;42884;50.718;4.630;2022-12-16T17:38:53;-0.20;99.90
23873;DHT22;42884;50.718;4.630;2022-12-16T17:41:37;-0.20;99.90
23873;DHT22;42884;50.718;4.630;2022-12-16T17:44:21;-0.20;99.90
23873;DHT22;42884;50.718;4.630;2022-12-16T17:47:06;-0.30;99.90
23873;DHT22;42884;50.718;4.630;2022-12-16T17:49:50;-0.30;99.90
23873;DHT22;42884;50.718;4.630;2022-12-16T17:52:34;-0.30;99.90
23873;DHT22;42884;50.718;4.630;2022-12-16T17:55:18;-0.40;99.90
23873;DHT22;42884;50.718;4.630;2022-12-16T17:58:02;-0.40;99.90
23873;DHT22;42884;50.718;4.630;2022-12-16T18:00:47;-0.50;99.90
23873;DHT22;42884;50.718;4.630;2022-12-16T18:03:31;-0.60;99.90
23873;DHT22;42884;50.718;4.630;2022-12-16T18:06:15;-0.60;99.90
23873;DHT22;42884;50.718;4.630;2022-12-16T18:08:59;-0.70;99.90
23873;DHT22;42884;50.718;4.630;2022-12-16T18:11:44;-0.70;99.90
23873;DHT22;42884;50.718;4.630;2022-12-16T18:14:28;-0.70;99.90
23873;DHT22;42884;50.718;4.630;2022-12-16T18:17:12;-0.70;99.90
23873;DHT22;42884;50.718;4.630;2022-12-16T18:19:56;-0.80;99.90
23873;DHT22;42884;50.718;4.630;2022-12-16T18:22:41;-0.80;99.90
23873;DHT22;42884;50.718;4.630;2022-12-16T18:25:25;-0.80;99.90
23873;DHT22;42884;50.718;4.630;2022-12-16T18:28:09;-0.90;99.90
23873;DHT22;42884;50.718;4.630;2022-12-16T18:30:53;-1.00;99.90
23873;DHT22;42884;50.718;4.630;2022-12-16T18:33:37;-1.00;99.90
23873;DHT22;42884;50.718;4.630;2022-12-16T18:36:22;-1.00;99.90
23873;DHT22;42884;50.718;4.630;2022-12-16T18:39:06;-1.10;99.90
23873;DHT22;42884;50.718;4.630;2022-12-16T18:41:50;-1.10;99.90
23873;DHT22;42884;50.718;4.630;2022-12-16T18:44:34;-1.10;99.90
23873;DHT22;42884;50.718;4.630;2022-12-16T18:47:19;-1.20;99.90
23873;DHT22;42884;50.718;4.630;2022-12-16T18:50:03;-1.30;99.90
23873;DHT22;42884;50.718;4.630;2022-12-16T18:52:48;-1.30;99.90
23873;DHT22;42884;50.718;4.630;2022-12-16T18:55:32;-1.30;99.90
23873;DHT22;42884;50.718;4.630;2022-12-16T18:58:16;-1.30;99.90
23873;DHT22;42884;50.718;4.630;2022-12-16T19:01:01;-1.40;99.90